Time;durP1;ratioP1;P1;durP2;ratioP2;P2;SDS_P1;SDS_P2;PMS_P1;PMS_P2;Temp;Humidity;BMP_temperature;BMP_pressure;BME280_temperature;BME280_humidity;BME280_pressure;Samples;Min_cycle;Max_cycle;Signal;HPM_P1;HPM_P2
2023/12/30 00:01:16;;;;;;;1.33;0.63;;;;;;;3.49;100.00;97639.19;6241732;28;20218;-45
2023/12/30 00:04:18;;;;;;;0.60;0.50;;;;;;;3.46;100.00;97644.06;6240202;28;20687;-48
2023/12/30 00:07:20;;;;;;;1.33;0.43;;;;;;;3.30;100.00;97632.88;6241285;28;20197;-44
2023/12/30 00:10:22;;;;;;;0.70;0.47;;;;;;;3.46;100.00;97636.97;6231158;28;20294;-45
2023/12/30 00:13:24;;;;;;;1.43;0.50;;;;;;;3.30;100.00;97638.13;6244076;28;20588;-46
2023/12/30 00:16:28;;;;;;;1.57;0.53;;;;;;;3.39;100.00;97645.84;6237922;28;20655;-48
2023/12/30 00:19:33;;;;;;;0.60;0.40;;;;;;;3.38;100.00;97641.59;6240266;28;20196;-47
2023/12/30 00:22:36;;;;;;;0.50;0.50;;;;;;;3.32;100.00;97649.25;6240206;28;20652;-48
2023/12/30 00:25:38;;;;;;;0.60;0.50;;;;;;;3.27;100.00;97651.69;6228888;28;20201;-48
2023/12/30 00:28:40;;;;;;;1.37;0.80;;;;;;;3.18;100.00;97655.47;6238655;28;20767;-46
2023/12/30 00:31:41;;;;;;;0.60;0.60;;;;;;;3.19;100.00;97651.03;6230288;28;20284;-46
2023/12/30 00:34:45;;;;;;;0.70;0.50;;;;;;;3.20;100.00;97647.38;6246598;28;20201;-45
2023/12/30 00:37:48;;;;;;;0.67;0.60;;;;;;;3.29;100.00;97651.47;6233439;28;20203;-46
2023/12/30 00:40:50;;;;;;;0.80;0.60;;;;;;;3.24;100.00;97654.69;6239199;28;20743;-45
2023/12/30 00:43:52;;;;;;;2.20;0.80;;;;;;;3.39;100.00;97654.56;6233815;28;20578;-48
2023/12/30 00:46:54;;;;;;;0.70;0.43;;;;;;;3.16;100.00;97625.91;6245396;28;20202;-45
2023/12/30 00:49:56;;;;;;;0.93;0.50;;;;;;;3.27;100.00;97651.69;6254530;28;20211;-46
2023/12/30 00:52:58;;;;;;;1.10;0.80;;;;;;;2.74;100.00;97559.31;6229002;28;20202;-44
2023/12/30 00:56:01;;;;;;;1.23;0.60;;;;;;;3.25;100.00;97650.22;6256699;28;20196;-45
2023/12/30 00:59:04;;;;;;;4.93;0.60;;;;;;;3.15;100.00;97653.22;6238934;28;20200;-48
2023/12/30 01:02:06;;;;;;;0.60;0.60;;;;;;;3.19;100.00;97653.66;6252019;28;20190;-45
2023/12/30 01:05:08;;;;;;;1.00;0.60;;;;;;;3.21;100.00;97654.28;6242358;28;20973;-46
2023/12/30 01:08:11;;;;;;;0.70;0.70;;;;;;;3.17;100.00;97653.84;6245503;28;20639;-45
2023/12/30 01:11:14;;;;;;;0.60;0.60;;;;;;;3.31;100.00;97658.19;6242733;28;20249;-46
2023/12/30 01:14:16;;;;;;;0.60;0.60;;;;;;;3.29;100.00;97660.19;6224304;28;20285;-47
2023/12/30 01:17:18;;;;;;;1.63;0.60;;;;;;;3.38;100.00;97666.09;6250460;28;20663;-46
2023/12/30 01:20:20;;;;;;;1.13;0.60;;;;;;;3.34;100.00;97673.56;6244237;28;20191;-44
2023/12/30 01:23:24;;;;;;;0.60;0.60;;;;;;;3.35;100.00;97667.31;6242296;28;20577;-45
2023/12/30 01:26:30;;;;;;;0.47;0.47;;;;;;;3.34;100.00;97684.09;6248927;28;20206;-44
2023/12/30 01:29:32;;;;;;;2.93;0.67;;;;;;;3.29;100.00;97675.97;6223343;28;20248;-45
2023/12/30 01:32:35;;;;;;;0.70;0.60;;;;;;;3.54;100.00;97680.75;6244177;28;20249;-44
2023/12/30 01:35:38;;;;;;;0.80;0.50;;;;;;;3.58;100.00;97684.59;6220182;28;20278;-46
2023/12/30 01:38:42;;;;;;;0.40;0.40;;;;;;;3.52;100.00;97682.78;6241508;28;20199;-48
2023/12/30 01:41:45;;;;;;;0.70;0.67;;;;;;;3.52;100.00;97669.59;6241343;28;20203;-46
2023/12/30 01:44:47;;;;;;;1.20;0.87;;;;;;;3.50;100.00;97676.91;6228765;28;20658;-47
2023/12/30 01:47:50;;;;;;;2.00;1.30;;;;;;;3.35;100.00;97677.84;6245199;28;20202;-47
2023/12/30 01:50:57;;;;;;;1.10;1.00;;;;;;;3.38;100.00;97681.91;6218589;28;20722;-47
2023/12/30 01:54:00;;;;;;;1.07;0.97;;;;;;;3.36;100.00;97670.75;6242758;28;20212;-47
2023/12/30 01:57:03;;;;;;;1.20;0.90;;;;;;;3.38;100.00;97678.44;6231436;28;20208;-49
2023/12/30 02:00:06;;;;;;;0.80;0.80;;;;;;;3.51;100.00;97681.16;6225922;28;20204;-47
2023/12/30 02:03:15;;;;;;;0.90;0.53;;;;;;;3.74;100.00;97668.44;6230741;28;20226;-46
2023/12/30 02:06:17;;;;;;;0.60;0.50;;;;;;;4.06;100.00;97655.56;6243144;28;20200;-46
2023/12/30 02:09:19;;;;;;;1.53;0.70;;;;;;;4.09;100.00;97670.97;6237321;28;20235;-48
2023/12/30 02:12:21;;;;;;;1.30;0.70;;;;;;;3.98;100.00;97647.81;6238297;28;20206;-47
2023/12/30 02:15:27;;;;;;;0.93;0.80;;;;;;;4.04;100.00;97655.75;6236916;28;20236;-45
2023/12/30 02:18:29;;;;;;;1.13;0.60;;;;;;;4.15;100.00;97651.72;6216812;28;20271;-47
2023/12/30 02:21:31;;;;;;;0.60;0.60;;;;;;;4.23;100.00;97655.97;6242405;28;20206;-47
2023/12/30 02:24:33;;;;;;;0.87;0.60;;;;;;;4.23;100.00;97653.34;6234318;28;20188;-47
2023/12/30 02:27:35;;;;;;;0.77;0.50;;;;;;;4.23;100.00;97645.41;6219247;28;20237;-49
2023/12/30 02:30:38;;;;;;;0.40;0.40;;;;;;;4.25;100.00;97641.59;6240316;28;20708;-48
2023/12/30 02:33:40;;;;;;;0.60;0.60;;;;;;;4.45;100.00;97644.22;6217047;28;20204;-48
2023/12/30 02:36:44;;;;;;;1.97;0.77;;;;;;;4.26;100.00;97602.84;6237618;28;20661;-48
2023/12/30 02:39:46;;;;;;;0.67;0.63;;;;;;;4.49;100.00;97632.25;6208773;28;20591;-48
2023/12/30 02:42:48;;;;;;;0.90;0.40;;;;;;;4.54;100.00;97635.09;6233167;28;20216;-48
2023/12/30 02:45:51;;;;;;;1.17;0.60;;;;;;;4.61;100.00;97635.06;6229795;28;20202;-50
2023/12/30 02:48:53;;;;;;;0.97;0.50;;;;;;;4.79;100.00;97639.72;6246737;28;20207;-47
2023/12/30 02:51:57;;;;;;;1.80;0.40;;;;;;;4.92;100.00;97626.47;6235459;28;20592;-47
2023/12/30 02:55:00;;;;;;;1.00;0.47;;;;;;;4.97;100.00;97636.41;6243103;28;20691;-50
2023/12/30 02:58:03;;;;;;;0.53;0.47;;;;;;;6.66;96.68;97630.63;6228986;28;20201;-48
2023/12/30 03:01:05;;;;;;;0.50;0.50;;;;;;;6.67;96.80;97617.16;6242854;28;20804;-50
2023/12/30 03:04:07;;;;;;;0.33;0.33;;;;;;;6.93;91.98;97602.03;6255737;28;20199;-47
2023/12/30 03:07:09;;;;;;;2.07;0.47;;;;;;;6.91;94.15;97607.56;6244196;28;20698;-47
2023/12/30 03:10:11;;;;;;;0.40;0.40;;;;;;;6.71;94.42;97622.84;6247089;28;20692;-48
2023/12/30 03:13:15;;;;;;;0.40;0.40;;;;;;;6.64;93.72;97619.41;6229355;28;20980;-47
2023/12/30 03:16:18;;;;;;;1.40;0.67;;;;;;;6.70;94.95;97618.56;6236165;28;20225;-48
2023/12/30 03:19:20;;;;;;;0.43;0.40;;;;;;;6.71;94.67;97613.06;6246838;28;20233;-48
2023/12/30 03:22:22;;;;;;;1.30;0.70;;;;;;;6.84;93.09;97613.94;6224893;28;20206;-48
2023/12/30 03:25:24;;;;;;;0.30;0.30;;;;;;;6.80;91.98;97599.50;6229527;28;20448;-48
2023/12/30 03:28:27;;;;;;;0.60;0.40;;;;;;;6.87;91.63;97601.06;6243675;28;20673;-46
2023/12/30 03:31:30;;;;;;;0.50;0.40;;;;;;;7.17;89.65;97621.53;6220106;28;20222;-49
2023/12/30 03:34:32;;;;;;;2.40;0.50;;;;;;;8.24;83.30;97630.50;6246297;28;20206;-48
2023/12/30 03:37:35;;;;;;;0.60;0.40;;;;;;;8.52;81.00;97627.25;6238122;28;20200;-49
2023/12/30 03:40:37;;;;;;;0.27;0.27;;;;;;;8.77;78.00;97634.19;6243448;28;20196;-48
2023/12/30 03:43:39;;;;;;;0.30;0.30;;;;;;;8.82;77.45;97623.66;6234622;28;20589;-50
2023/12/30 03:46:41;;;;;;;0.53;0.40;;;;;;;9.12;75.39;97618.22;6233082;28;20203;-50
2023/12/30 03:49:43;;;;;;;2.00;0.50;;;;;;;9.25;75.70;97614.47;6239755;28;20200;-49
2023/12/30 03:52:46;;;;;;;0.87;0.60;;;;;;;8.98;77.74;97616.84;6240821;28;20199;-48
2023/12/30 03:55:48;;;;;;;1.77;0.50;;;;;;;9.20;76.07;97619.69;6241090;28;20195;-49
2023/12/30 03:58:50;;;;;;;0.63;0.53;;;;;;;9.11;75.19;97621.88;6240715;28;20207;-51
2023/12/30 04:01:52;;;;;;;0.50;0.50;;;;;;;9.28;73.46;97624.63;6216148;28;20200;-49
2023/12/30 04:04:55;;;;;;;2.53;0.40;;;;;;;9.28;74.78;97619.31;6237121;28;20202;-50
2023/12/30 04:07:58;;;;;;;0.30;0.30;;;;;;;9.12;74.99;97638.66;6245141;28;20742;-49
2023/12/30 04:11:00;;;;;;;0.40;0.40;;;;;;;8.92;76.54;97633.72;6237776;28;20321;-51
2023/12/30 04:14:02;;;;;;;0.30;0.30;;;;;;;8.98;75.12;97641.56;6239347;28;20594;-48
2023/12/30 04:17:04;;;;;;;0.67;0.40;;;;;;;8.81;76.66;97629.19;6235269;28;20195;-46
2023/12/30 04:20:07;;;;;;;1.63;0.50;;;;;;;9.02;76.03;97661.31;6237988;28;20582;-49
2023/12/30 04:23:09;;;;;;;0.70;0.70;;;;;;;8.72;78.05;97661.44;6242609;28;20188;-48
2023/12/30 04:26:11;;;;;;;0.73;0.50;;;;;;;8.61;78.26;97654.25;6223515;28;20791;-49
2023/12/30 04:29:13;;;;;;;0.30;0.30;;;;;;;9.24;75.08;97674.00;6238472;28;20196;-48
2023/12/30 04:32:15;;;;;;;0.40;0.40;;;;;;;9.34;74.58;97678.72;6219485;28;20219;-52
2023/12/30 04:35:17;;;;;;;0.63;0.40;;;;;;;9.78;71.44;97679.88;6237817;28;20851;-50
2023/12/30 04:38:20;;;;;;;0.50;0.40;;;;;;;9.32;74.74;97681.63;6246529;28;20199;-50
2023/12/30 04:41:23;;;;;;;1.20;0.30;;;;;;;9.27;75.53;97694.81;6231968;28;20219;-50
2023/12/30 04:44:26;;;;;;;0.60;0.50;;;;;;;9.07;76.57;97686.38;6240105;28;20677;-49
2023/12/30 04:47:28;;;;;;;0.70;0.57;;;;;;;8.99;77.35;97690.19;6236085;28;20653;-48
2023/12/30 04:50:30;;;;;;;0.50;0.50;;;;;;;8.80;77.28;97668.22;6237099;28;20200;-47
2023/12/30 04:53:33;;;;;;;0.97;0.50;;;;;;;8.78;78.63;97692.38;6225901;28;20266;-48
2023/12/30 04:56:35;;;;;;;0.40;0.30;;;;;;;8.75;78.66;97702.63;6235441;28;20200;-50
2023/12/30 04:59:37;;;;;;;0.70;0.50;;;;;;;8.72;78.95;97698.59;6240851;28;20211;-49
2023/12/30 05:02:39;;;;;;;0.40;0.40;;;;;;;8.65;78.54;97681.16;6248112;28;20194;-50
2023/12/30 05:05:42;;;;;;;0.47;0.40;;;;;;;8.62;79.40;97702.84;6243409;28;20211;-51
2023/12/30 05:08:44;;;;;;;0.50;0.50;;;;;;;8.55;80.23;97710.91;6247263;28;20240;-49
2023/12/30 05:11:48;;;;;;;0.50;0.50;;;;;;;8.39;81.18;97704.44;6242404;28;20730;-50
2023/12/30 05:14:51;;;;;;;0.40;0.40;;;;;;;8.26;82.47;97705.38;6250871;28;20196;-50
2023/12/30 05:17:55;;;;;;;0.40;0.33;;;;;;;8.08;83.37;97709.91;6244625;28;20197;-49
2023/12/30 05:20:58;;;;;;;0.57;0.43;;;;;;;8.10;84.43;97723.78;6254528;28;20192;-51
2023/12/30 05:24:00;;;;;;;1.57;0.40;;;;;;;8.03;84.71;97723.91;6242055;28;20204;-51
2023/12/30 05:27:02;;;;;;;0.40;0.30;;;;;;;7.98;85.82;97723.75;6257073;28;20568;-50
2023/12/30 05:30:07;;;;;;;0.57;0.53;;;;;;;7.77;87.97;97722.34;6246244;28;20885;-49
2023/12/30 05:33:10;;;;;;;0.60;0.40;;;;;;;7.73;87.97;97721.19;6250818;28;20202;-53
2023/12/30 05:36:12;;;;;;;0.50;0.50;;;;;;;8.07;87.17;97726.88;6248646;28;20199;-51
2023/12/30 05:39:14;;;;;;;0.50;0.20;;;;;;;7.99;88.05;97731.47;6246637;28;20777;-50
2023/12/30 05:42:17;;;;;;;0.60;0.40;;;;;;;7.96;88.44;97729.25;6249445;28;20199;-50
2023/12/30 05:45:19;;;;;;;0.93;0.73;;;;;;;7.94;89.17;97728.69;6235890;28;20204;-50
2023/12/30 05:48:21;;;;;;;0.50;0.40;;;;;;;7.90;89.00;97727.50;6242991;28;20757;-49
2023/12/30 05:51:23;;;;;;;0.40;0.30;;;;;;;7.81;89.70;97728.84;6240849;28;20685;-48
2023/12/30 05:54:26;;;;;;;2.10;0.60;;;;;;;7.78;89.98;97745.19;6250317;28;20809;-48
2023/12/30 05:57:28;;;;;;;0.93;0.60;;;;;;;7.69;90.47;97734.09;6242703;28;20198;-50
2023/12/30 06:00:32;;;;;;;1.00;0.37;;;;;;;7.69;90.56;97744.69;6240971;28;20203;-50
2023/12/30 06:03:36;;;;;;;0.87;0.53;;;;;;;7.91;88.73;97741.56;6244862;28;20180;-48
2023/12/30 06:06:38;;;;;;;0.57;0.57;;;;;;;7.87;88.61;97749.16;6235887;28;20192;-50
2023/12/30 06:09:41;;;;;;;0.50;0.40;;;;;;;7.74;89.40;97759.94;6224901;28;20321;-47
2023/12/30 06:12:44;;;;;;;1.97;0.40;;;;;;;7.64;90.08;97767.59;6239531;28;20248;-50
2023/12/30 06:15:52;;;;;;;0.60;0.40;;;;;;;7.62;90.66;97762.50;6245366;28;20193;-52
2023/12/30 06:18:54;;;;;;;0.80;0.50;;;;;;;7.43;91.09;97721.91;6224318;28;20224;-50
2023/12/30 06:21:56;;;;;;;1.03;0.53;;;;;;;7.53;90.97;97763.00;6237327;28;20199;-48
2023/12/30 06:24:58;;;;;;;0.33;0.33;;;;;;;7.50;90.78;97764.28;6239683;28;20274;-48
2023/12/30 06:28:00;;;;;;;0.93;0.50;;;;;;;7.48;90.50;97768.97;6230006;28;20226;-49
2023/12/30 06:31:02;;;;;;;1.00;0.50;;;;;;;7.46;90.47;97771.84;6244854;28;20199;-50
2023/12/30 06:34:05;;;;;;;1.57;0.50;;;;;;;7.40;91.28;97782.53;6237415;28;20264;-49
2023/12/30 06:37:07;;;;;;;0.97;0.50;;;;;;;7.44;89.98;97779.22;6240854;28;20712;-49
2023/12/30 06:40:09;;;;;;;0.50;0.50;;;;;;;7.40;90.27;97772.72;6233418;28;20195;-48
2023/12/30 06:43:12;;;;;;;0.47;0.47;;;;;;;7.61;88.25;97787.41;6233046;28;20195;-47
2023/12/30 06:46:18;;;;;;;0.70;0.63;;;;;;;7.60;88.93;97785.78;6234796;28;20204;-50
2023/12/30 06:49:20;;;;;;;0.73;0.60;;;;;;;7.68;87.08;97776.72;6229000;28;20203;-49
2023/12/30 06:52:23;;;;;;;1.10;0.60;;;;;;;7.80;86.73;97798.03;6239820;28;20302;-48
2023/12/30 06:55:27;;;;;;;0.50;0.50;;;;;;;7.92;83.99;97767.06;6227559;28;20204;-48
2023/12/30 06:58:41;;;;;;;0.47;0.47;;;;;;;8.34;82.79;97801.66;6239163;28;20736;-52
2023/12/30 07:01:44;;;;;;;2.67;0.60;;;;;;;8.27;83.40;97817.66;6230343;28;20191;-49
2023/12/30 07:04:46;;;;;;;1.10;0.60;;;;;;;8.22;83.29;97812.22;6242301;28;20195;-47
2023/12/30 07:07:48;;;;;;;0.90;0.60;;;;;;;9.03;77.09;97809.06;6248897;28;20227;-49
2023/12/30 07:10:51;;;;;;;0.60;0.60;;;;;;;9.61;72.03;97825.31;6245959;28;20219;-48
2023/12/30 07:13:53;;;;;;;0.90;0.70;;;;;;;9.51;73.01;97831.19;6257137;28;20213;-49
2023/12/30 07:16:55;;;;;;;1.67;0.60;;;;;;;9.72;71.34;97835.13;6242110;28;20199;-49
2023/12/30 07:19:58;;;;;;;0.70;0.50;;;;;;;9.78;70.54;97834.19;6228540;28;20206;-48
2023/12/30 07:23:02;;;;;;;0.90;0.40;;;;;;;10.06;68.51;97842.25;6246451;28;20631;-48
2023/12/30 07:26:05;;;;;;;0.93;0.73;;;;;;;10.21;67.15;97841.75;6240374;28;20677;-49
2023/12/30 07:29:07;;;;;;;0.60;0.60;;;;;;;10.04;68.50;97847.00;6241135;28;20207;-50
2023/12/30 07:32:09;;;;;;;0.93;0.70;;;;;;;9.79;70.71;97860.56;6244125;28;20228;-50
2023/12/30 07:35:11;;;;;;;1.53;0.60;;;;;;;9.44;73.12;97857.09;6253708;28;20199;-51
2023/12/30 07:38:13;;;;;;;1.07;0.60;;;;;;;9.22;74.27;97862.16;6240557;28;20246;-48
2023/12/30 07:41:16;;;;;;;3.23;0.77;;;;;;;9.10;75.05;97863.97;6251956;28;20677;-48
2023/12/30 07:44:18;;;;;;;0.70;0.70;;;;;;;9.05;74.80;97867.28;6244443;28;20196;-49
2023/12/30 07:47:21;;;;;;;0.50;0.50;;;;;;;8.98;76.18;97880.69;6245400;28;20992;-49
2023/12/30 07:50:23;;;;;;;2.23;0.60;;;;;;;8.96;76.60;97866.78;6242889;28;20660;-48
2023/12/30 07:53:25;;;;;;;0.57;0.53;;;;;;;8.82;77.21;97881.34;6242497;28;20223;-47
2023/12/30 07:56:27;;;;;;;0.80;0.80;;;;;;;9.14;74.69;97868.59;6240899;28;20323;-50
2023/12/30 07:59:30;;;;;;;1.23;0.50;;;;;;;9.54;72.58;97881.25;6247712;28;20294;-49
2023/12/30 08:02:32;;;;;;;0.57;0.50;;;;;;;9.82;70.25;97883.25;6242474;28;20845;-49
2023/12/30 08:05:34;;;;;;;0.70;0.67;;;;;;;9.84;71.26;97894.44;6245322;28;20335;-47
2023/12/30 08:08:36;;;;;;;0.60;0.60;;;;;;;9.91;68.86;97883.72;6245532;28;20726;-52
2023/12/30 08:11:38;;;;;;;0.97;0.77;;;;;;;9.82;70.82;97884.03;6250678;28;20299;-50
2023/12/30 08:14:59;;;;;;;0.70;0.70;;;;;;;9.78;70.85;97876.75;6242274;28;20768;-48
2023/12/30 08:18:01;;;;;;;0.77;0.67;;;;;;;9.75;71.79;97891.34;6250552;28;20194;-50
2023/12/30 08:21:03;;;;;;;0.53;0.53;;;;;;;9.92;69.85;97882.66;6239363;28;20827;-51
2023/12/30 08:24:07;;;;;;;0.80;0.80;;;;;;;9.98;69.50;97869.22;6241325;28;20192;-51
2023/12/30 08:27:09;;;;;;;0.60;0.60;;;;;;;10.12;68.86;97882.28;6244642;28;20195;-52
2023/12/30 08:30:11;;;;;;;1.80;0.90;;;;;;;10.22;67.36;97887.84;6237847;28;20203;-49
2023/12/30 08:33:14;;;;;;;2.10;0.70;;;;;;;10.07;68.77;97886.47;6244429;28;20741;-50
2023/12/30 08:36:16;;;;;;;0.67;0.50;;;;;;;10.05;69.95;97899.19;6236569;28;20643;-49
2023/12/30 08:39:18;;;;;;;0.80;0.67;;;;;;;10.08;69.43;97896.06;6244444;28;20706;-50
2023/12/30 08:42:22;;;;;;;0.60;0.60;;;;;;;10.29;66.59;97904.50;6235741;28;20192;-48
2023/12/30 08:45:24;;;;;;;2.23;0.70;;;;;;;10.37;66.79;97904.16;6243374;28;20218;-53
2023/12/30 08:48:26;;;;;;;0.50;0.50;;;;;;;10.47;65.29;97911.56;6222487;28;20684;-50
2023/12/30 08:51:29;;;;;;;0.60;0.60;;;;;;;10.82;63.22;97901.59;6233905;28;20194;-49
2023/12/30 08:54:32;;;;;;;0.80;0.67;;;;;;;10.80;62.95;97918.88;6241016;28;20228;-49
2023/12/30 08:57:34;;;;;;;0.90;0.77;;;;;;;11.00;62.09;97892.59;6234098;28;20195;-52
2023/12/30 09:00:36;;;;;;;0.63;0.63;;;;;;;10.87;62.44;97926.72;6225231;28;20833;-49
2023/12/30 09:03:38;;;;;;;0.90;0.70;;;;;;;10.70;64.13;97932.00;6231314;28;20221;-51
2023/12/30 09:06:40;;;;;;;0.60;0.60;;;;;;;10.56;64.57;97910.94;6243680;28;20197;-51
2023/12/30 09:09:42;;;;;;;1.30;0.70;;;;;;;10.71;62.93;97923.75;6229959;28;20226;-48
2023/12/30 09:12:45;;;;;;;0.60;0.60;;;;;;;10.62;64.61;97935.03;6232391;28;20214;-50
2023/12/30 09:15:47;;;;;;;0.90;0.70;;;;;;;10.71;63.86;97934.41;6257537;28;20199;-51
2023/12/30 09:18:49;;;;;;;1.97;0.87;;;;;;;10.79;62.63;97927.94;6246093;28;20201;-48
2023/12/30 09:21:51;;;;;;;0.97;0.80;;;;;;;10.48;65.40;97924.63;6261565;28;20275;-49
2023/12/30 09:24:54;;;;;;;0.93;0.90;;;;;;;10.31;65.82;97934.38;6249177;28;20336;-50
2023/12/30 09:27:56;;;;;;;1.03;0.80;;;;;;;10.39;65.22;97923.38;6253684;28;20192;-48
2023/12/30 09:30:58;;;;;;;1.20;0.80;;;;;;;10.46;64.21;97926.72;6251509;28;20204;-49
2023/12/30 09:34:00;;;;;;;1.17;0.80;;;;;;;10.66;64.03;97925.53;6249826;28;20685;-50
2023/12/30 09:37:02;;;;;;;2.00;0.60;;;;;;;10.79;62.47;97920.75;6251082;28;20280;-50
2023/12/30 09:40:05;;;;;;;1.03;0.40;;;;;;;10.84;62.37;97912.84;6244808;28;20327;-51
2023/12/30 09:43:09;;;;;;;0.60;0.60;;;;;;;11.09;61.08;97907.16;6254832;28;20669;-51
2023/12/30 09:46:13;;;;;;;1.63;0.83;;;;;;;11.03;62.06;97910.78;6241615;28;20270;-50
2023/12/30 09:49:15;;;;;;;0.77;0.60;;;;;;;10.92;62.37;97924.97;6247305;28;20198;-49
2023/12/30 09:52:18;;;;;;;0.93;0.77;;;;;;;10.88;62.35;97926.47;6248094;28;20589;-50
2023/12/30 09:55:20;;;;;;;1.40;0.57;;;;;;;10.87;62.69;97894.75;6247278;28;20202;-51
2023/12/30 09:58:24;;;;;;;0.67;0.50;;;;;;;10.78;63.65;97915.63;6249665;28;20608;-50
2023/12/30 10:01:27;;;;;;;0.77;0.73;;;;;;;10.76;63.09;97909.72;6241144;28;20570;-50
2023/12/30 10:04:29;;;;;;;0.50;0.50;;;;;;;10.67;63.66;97903.97;6256164;28;20208;-48
2023/12/30 10:07:33;;;;;;;1.33;0.73;;;;;;;10.66;65.00;97918.34;6239291;28;20593;-50
2023/12/30 10:10:46;;;;;;;1.97;0.90;;;;;;;10.72;64.38;97919.25;6245020;28;20704;-50
2023/12/30 10:13:48;;;;;;;0.60;0.57;;;;;;;11.02;63.33;97917.16;6243394;28;21041;-48
2023/12/30 10:16:50;;;;;;;0.67;0.67;;;;;;;10.87;64.38;97924.06;6244250;28;20648;-50
2023/12/30 10:19:52;;;;;;;1.57;0.63;;;;;;;10.85;64.30;97927.78;6226471;28;20210;-50
2023/12/30 10:22:55;;;;;;;2.10;0.77;;;;;;;10.85;65.04;97934.97;6237144;28;20549;-48
2023/12/30 10:25:58;;;;;;;2.07;0.80;;;;;;;10.96;64.07;97931.44;6249906;28;20199;-51
2023/12/30 10:29:00;;;;;;;0.60;0.50;;;;;;;10.79;64.21;97926.06;6236205;28;20194;-50
2023/12/30 10:32:04;;;;;;;0.93;0.70;;;;;;;10.78;64.30;97939.59;6243375;28;20203;-53
2023/12/30 10:35:06;;;;;;;5.37;2.07;;;;;;;10.78;64.72;97950.25;6241983;28;20207;-50
2023/12/30 10:38:09;;;;;;;0.60;0.60;;;;;;;10.97;63.47;97949.03;6231102;28;20208;-51
2023/12/30 10:41:15;;;;;;;1.50;0.70;;;;;;;10.72;65.88;97949.34;6241620;28;20233;-51
2023/12/30 10:44:18;;;;;;;0.60;0.60;;;;;;;10.68;65.97;97934.88;6234872;28;20202;-53
2023/12/30 10:47:21;;;;;;;0.50;0.50;;;;;;;10.60;66.81;97945.94;6230157;28;20204;-49
2023/12/30 10:50:25;;;;;;;0.60;0.60;;;;;;;10.59;65.67;97955.78;6236843;28;20205;-50
2023/12/30 10:53:36;;;;;;;0.90;0.40;;;;;;;10.52;66.06;97949.75;6239645;28;20218;-51
2023/12/30 10:56:44;;;;;;;0.67;0.67;;;;;;;10.52;67.61;97938.28;6233594;28;20201;-52
2023/12/30 10:59:50;;;;;;;0.77;0.60;;;;;;;10.62;66.05;97940.34;6238543;28;20390;-50
2023/12/30 11:02:52;;;;;;;0.80;0.60;;;;;;;10.44;67.82;97939.47;6235887;28;20193;-53
2023/12/30 11:06:12;;;;;;;1.40;0.70;;;;;;;10.45;67.42;97949.09;6228169;28;20722;-52
2023/12/30 11:09:14;;;;;;;1.73;0.60;;;;;;;10.47;67.18;97959.50;6235052;28;20372;-53
2023/12/30 11:12:16;;;;;;;0.70;0.60;;;;;;;10.56;67.65;97950.91;6225500;28;20232;-54
2023/12/30 11:15:30;;;;;;;0.63;0.50;;;;;;;10.56;67.26;97926.94;6236088;28;20662;-52
2023/12/30 11:19:01;;;;;;;0.67;0.50;;;;;;;11.06;65.32;97928.16;6228252;28;20193;-52
2023/12/30 11:22:06;;;;;;;0.50;0.50;;;;;;;10.96;67.22;97942.09;6234408;28;20198;-50
2023/12/30 11:25:08;;;;;;;0.73;0.53;;;;;;;11.04;65.76;97919.59;6250062;28;20279;-51
2023/12/30 11:28:19;;;;;;;1.90;0.47;;;;;;;11.08;65.95;97913.56;6250336;28;20277;-52
2023/12/30 11:31:34;;;;;;;1.90;0.60;;;;;;;11.18;64.95;97915.59;6251038;28;20226;-53
2023/12/30 11:34:36;;;;;;;0.60;0.50;;;;;;;11.02;65.85;97933.16;6243421;28;20212;-51
2023/12/30 11:37:43;;;;;;;0.90;0.63;;;;;;;11.13;65.89;97936.00;6254894;28;20198;-52
2023/12/30 11:40:52;;;;;;;1.57;0.43;;;;;;;10.90;65.65;97942.25;6241273;28;20200;-52
2023/12/30 11:43:56;;;;;;;0.60;0.50;;;;;;;10.76;66.25;97931.06;6253185;28;20206;-52
2023/12/30 11:46:59;;;;;;;0.80;0.50;;;;;;;10.68;68.03;97932.22;6243682;28;20184;-50
2023/12/30 11:50:03;;;;;;;0.83;0.60;;;;;;;10.46;69.04;97917.94;6247404;28;20881;-50
2023/12/30 11:53:05;;;;;;;0.47;0.40;;;;;;;10.53;67.61;97926.59;6249642;28;20695;-49
2023/12/30 11:56:07;;;;;;;1.17;0.43;;;;;;;10.42;67.76;97927.44;6246413;28;20657;-49
2023/12/30 11:59:11;;;;;;;1.60;0.60;;;;;;;10.40;69.23;97942.84;6250143;28;20195;-49
2023/12/30 12:02:13;;;;;;;0.53;0.47;;;;;;;10.21;69.36;97913.66;6240342;28;20661;-49
2023/12/30 12:05:17;;;;;;;0.43;0.30;;;;;;;10.35;69.00;97935.56;6252194;28;20199;-50
2023/12/30 12:08:19;;;;;;;1.07;0.50;;;;;;;10.42;69.54;97936.22;6241215;28;20360;-51
2023/12/30 12:11:21;;;;;;;0.50;0.50;;;;;;;10.43;69.65;97921.03;6242595;28;20188;-50
2023/12/30 12:14:24;;;;;;;0.73;0.50;;;;;;;10.50;68.33;97916.41;6245412;28;20222;-51
2023/12/30 12:17:27;;;;;;;0.60;0.47;;;;;;;10.46;69.95;97925.91;6238246;28;20195;-51
2023/12/30 12:20:37;;;;;;;0.73;0.50;;;;;;;10.49;69.88;97914.78;6241563;28;20254;-52
2023/12/30 12:23:42;;;;;;;1.80;0.60;;;;;;;10.12;72.46;97898.25;6235332;28;20193;-50
2023/12/30 12:26:44;;;;;;;1.20;0.60;;;;;;;10.07;74.51;97921.06;6250119;28;20314;-51
2023/12/30 12:29:50;;;;;;;0.93;0.53;;;;;;;10.02;72.83;97923.63;6242282;28;20199;-51
2023/12/30 12:32:56;;;;;;;0.70;0.50;;;;;;;9.99;73.62;97921.41;6239964;28;20217;-50
2023/12/30 12:35:59;;;;;;;0.60;0.40;;;;;;;9.92;77.19;97915.41;6243781;28;20252;-48
2023/12/30 12:39:01;;;;;;;1.77;0.67;;;;;;;9.93;73.71;97922.34;6241643;28;20204;-53
2023/12/30 12:42:03;;;;;;;0.70;0.50;;;;;;;9.73;75.00;97911.22;6228910;28;20573;-52
2023/12/30 12:45:24;;;;;;;0.80;0.70;;;;;;;9.67;76.67;97912.16;6236981;28;20194;-51
2023/12/30 12:48:26;;;;;;;1.07;0.40;;;;;;;9.71;76.67;97908.81;6245872;28;20686;-48
2023/12/30 12:51:32;;;;;;;0.30;0.30;;;;;;;9.66;77.69;97900.72;6238096;28;20192;-52
2023/12/30 12:54:35;;;;;;;0.40;0.30;;;;;;;9.83;75.00;97896.31;6246733;28;20201;-52
2023/12/30 12:57:37;;;;;;;0.53;0.33;;;;;;;9.77;76.79;97901.75;6239264;28;20233;-52
2023/12/30 13:00:39;;;;;;;0.40;0.40;;;;;;;9.69;77.84;97904.75;6239363;28;20853;-51
2023/12/30 13:03:42;;;;;;;2.27;0.50;;;;;;;9.73;76.23;97896.06;6238184;28;20189;-48
2023/12/30 13:06:44;;;;;;;0.53;0.40;;;;;;;9.64;78.24;97901.97;6236421;28;20201;-51
2023/12/30 13:09:59;;;;;;;1.03;0.47;;;;;;;9.56;78.05;97905.78;6242131;28;20864;-49
2023/12/30 13:13:03;;;;;;;0.90;0.50;;;;;;;9.49;77.88;97905.06;6239180;28;20211;-51
2023/12/30 13:16:06;;;;;;;1.20;0.53;;;;;;;9.81;76.04;97898.41;6243693;28;20572;-48
2023/12/30 13:19:08;;;;;;;0.50;0.50;;;;;;;9.63;76.57;97887.84;6239261;28;20188;-50
2023/12/30 13:22:11;;;;;;;0.37;0.37;;;;;;;9.60;77.18;97879.53;6242583;28;20556;-50
2023/12/30 13:25:13;;;;;;;0.40;0.40;;;;;;;9.63;76.76;97873.75;6238660;28;20283;-51
2023/12/30 13:28:16;;;;;;;0.67;0.40;;;;;;;9.63;76.50;97877.22;6232561;28;20202;-49
2023/12/30 13:31:24;;;;;;;1.50;0.73;;;;;;;9.67;76.32;97877.56;6241564;28;20197;-50
2023/12/30 13:34:30;;;;;;;0.50;0.40;;;;;;;9.63;76.52;97874.56;6245774;28;20343;-50
2023/12/30 13:37:38;;;;;;;1.03;0.50;;;;;;;9.43;77.52;97864.25;6253106;28;20727;-48
2023/12/30 13:40:41;;;;;;;0.73;0.53;;;;;;;9.45;77.99;97872.00;6249250;28;20239;-48
2023/12/30 13:43:46;;;;;;;0.63;0.50;;;;;;;9.37;78.98;97865.19;6250376;28;20722;-51
2023/12/30 13:53:13;;;;;;;0.60;0.50;;;;;;;9.41;77.30;97876.13;6251463;28;20638;-49
2023/12/30 13:56:18;;;;;;;2.07;0.70;;;;;;;9.56;75.36;97877.34;6243438;28;20242;-49
2023/12/30 13:59:23;;;;;;;1.77;0.60;;;;;;;9.55;76.02;97882.88;6248957;28;20668;-51
2023/12/30 14:02:26;;;;;;;1.20;0.40;;;;;;;9.28;77.85;97883.31;6246083;28;20255;-49
2023/12/30 14:05:33;;;;;;;0.57;0.47;;;;;;;9.09;79.58;97886.25;6250140;28;20227;-50
2023/12/30 14:08:42;;;;;;;2.23;0.83;;;;;;;8.84;81.07;97887.22;6245829;28;20238;-49
2023/12/30 14:11:57;;;;;;;0.87;0.60;;;;;;;8.74;81.64;97897.56;6245279;28;20780;-51
2023/12/30 14:15:06;;;;;;;1.30;0.80;;;;;;;8.65;82.76;97890.94;6249852;28;20444;-52
2023/12/30 14:18:08;;;;;;;1.60;0.70;;;;;;;8.58;83.00;97896.34;6241519;28;20656;-51
2023/12/30 14:21:11;;;;;;;0.80;0.80;;;;;;;8.44;84.29;97901.00;6254005;28;20273;-50
2023/12/30 14:24:15;;;;;;;1.23;0.60;;;;;;;8.29;84.69;97897.88;6238391;28;20878;-51
2023/12/30 14:27:18;;;;;;;0.70;0.70;;;;;;;8.23;85.55;97896.13;6246864;28;20703;-52
2023/12/30 14:30:20;;;;;;;0.60;0.60;;;;;;;8.09;86.23;97892.00;6243456;28;20196;-52
2023/12/30 14:33:22;;;;;;;0.80;0.70;;;;;;;7.99;86.65;97889.84;6241985;28;20213;-48